Time;durP1;ratioP1;P1;durP2;ratioP2;P2;SDS_P1;SDS_P2;PMS_P1;PMS_P2;Temp;Humidity;BMP_temperature;BMP_pressure;BME280_temperature;BME280_humidity;BME280_pressure;Samples;Min_cycle;Max_cycle;Signal;HPM_P1;HPM_P2
2021/09/20 00:00:11;;;;;;;9.00;7.37;;;15.70;99.30;;;15.72;87.77;98108.50;5037218;28;20686;-81
2021/09/20 00:02:40;;;;;;;8.60;7.50;;;15.70;99.40;;;15.73;87.90;98115.44;5058386;28;20612;-81
2021/09/20 00:05:10;;;;;;;9.77;7.57;;;15.70;99.40;;;15.74;88.05;98117.09;5037757;28;20644;-81
2021/09/20 00:07:39;;;;;;;9.97;7.70;;;15.80;99.80;;;15.74;87.56;98125.00;5044229;28;20793;-81
2021/09/20 00:10:11;;;;;;;10.47;7.00;;;15.80;99.60;;;15.71;88.01;98121.78;5074099;28;20692;-82
2021/09/20 00:12:39;;;;;;;7.90;6.43;;;15.70;99.60;;;15.71;88.37;98117.38;5041965;28;20662;-81
2021/09/20 00:15:12;;;;;;;7.27;6.27;;;15.70;99.70;;;15.71;87.09;98127.88;5038998;28;20640;-81
2021/09/20 00:17:41;;;;;;;9.57;6.67;;;15.70;99.80;;;15.67;87.84;98128.28;5042906;28;20655;-81
2021/09/20 00:20:13;;;;;;;7.80;6.40;;;15.70;99.50;;;15.64;89.09;98126.75;5047194;28;20637;-81
2021/09/20 00:22:42;;;;;;;8.50;6.70;;;15.70;99.80;;;15.62;87.55;98133.09;5038346;28;20693;-81
2021/09/20 00:25:12;;;;;;;7.10;6.20;;;15.70;99.80;;;15.63;88.43;98129.53;5071735;28;20630;-81
2021/09/20 00:27:41;;;;;;;8.77;7.07;;;15.70;99.90;;;15.62;87.63;98130.47;5041289;28;20623;-81
2021/09/20 00:30:12;;;;;;;11.33;6.93;;;15.70;99.80;;;15.58;88.98;98131.72;5042816;28;20691;-81
2021/09/20 00:32:41;;;;;;;8.67;7.67;;;15.60;99.60;;;15.55;89.15;98124.09;5054686;28;20695;-81
2021/09/20 00:35:10;;;;;;;13.57;9.03;;;15.60;99.80;;;15.56;88.38;98133.66;5036178;28;20636;-81
2021/09/20 00:37:39;;;;;;;10.00;7.30;;;15.50;99.90;;;15.56;88.05;98144.19;5040723;28;20666;-81
2021/09/20 00:40:10;;;;;;;8.10;6.80;;;15.60;99.90;;;15.55;89.03;98139.06;5040209;28;20676;-81
2021/09/20 00:42:39;;;;;;;9.17;7.33;;;15.60;99.90;;;15.56;88.84;98141.56;5046288;28;20623;-81
2021/09/20 00:45:11;;;;;;;9.07;6.50;;;15.60;99.90;;;15.55;90.48;98138.06;5042695;28;20662;-82
2021/09/20 00:47:39;;;;;;;8.03;6.40;;;15.60;99.90;;;15.57;90.52;98148.47;5042735;28;20644;-81
2021/09/20 00:50:09;;;;;;;7.67;6.60;;;15.60;99.90;;;15.56;88.63;98138.94;5043018;28;21229;-81
2021/09/20 00:52:38;;;;;;;8.70;7.50;;;15.60;99.90;;;15.56;91.08;98141.56;5039820;28;20747;-82
2021/09/20 00:55:09;;;;;;;9.43;6.77;;;15.60;99.90;;;15.56;89.04;98139.75;5054471;28;20640;-81
2021/09/20 00:57:38;;;;;;;7.93;6.80;;;15.60;99.90;;;15.55;89.22;98138.06;5052575;28;20739;-81
2021/09/20 01:00:11;;;;;;;7.90;7.10;;;15.60;99.90;;;15.54;91.17;98137.38;5041847;28;20639;-81
2021/09/20 01:02:40;;;;;;;7.53;6.73;;;15.60;99.90;;;15.53;90.32;98133.09;5045568;28;20652;-81
2021/09/20 01:05:11;;;;;;;8.80;6.97;;;15.60;99.90;;;15.51;90.04;98133.22;5042455;28;21181;-81
2021/09/20 01:07:41;;;;;;;8.40;7.30;;;15.60;99.90;;;15.53;91.01;98143.59;5023737;28;20802;-81
2021/09/20 01:10:11;;;;;;;8.70;7.17;;;15.60;99.90;;;15.54;90.75;98140.00;5039754;28;21269;-81
2021/09/20 01:12:40;;;;;;;8.80;7.50;;;15.60;99.90;;;15.53;88.88;98135.72;5069948;28;20640;-81
2021/09/20 01:15:11;;;;;;;8.50;7.10;;;15.50;99.90;;;15.52;88.54;98137.53;5037808;28;20728;-82
2021/09/20 01:17:40;;;;;;;8.43;7.30;;;15.50;99.90;;;15.52;88.88;98147.22;5043769;28;20706;-81
2021/09/20 01:20:11;;;;;;;9.03;6.90;;;15.50;99.90;;;15.51;90.89;98140.28;5037434;28;20650;-81
2021/09/20 01:22:40;;;;;;;10.00;8.17;;;15.50;99.90;;;15.54;91.33;98146.09;5070803;28;20643;-81
2021/09/20 01:25:12;;;;;;;8.03;7.00;;;15.50;99.90;;;15.54;88.97;98147.91;5036028;28;20657;-81
2021/09/20 01:27:41;;;;;;;9.40;7.17;;;15.60;99.90;;;15.52;90.55;98149.84;5036269;28;23679;-81
2021/09/20 01:30:12;;;;;;;9.97;7.70;;;15.50;99.90;;;15.52;90.21;98157.72;5027804;28;20685;-81
2021/09/20 01:32:40;;;;;;;8.33;7.00;;;15.50;99.90;;;15.52;90.40;98152.47;5052457;28;20650;-81
2021/09/20 01:35:09;;;;;;;10.00;8.37;;;15.50;99.90;;;15.53;91.26;98154.13;5038454;28;20636;-81
2021/09/20 01:37:38;;;;;;;8.50;7.43;;;15.60;99.90;;;15.53;90.03;98148.84;5042812;28;20654;-81
2021/09/20 01:40:11;;;;;;;8.77;7.20;;;15.50;99.90;;;15.54;89.27;98151.34;5026290;28;20683;-81
2021/09/20 01:42:41;;;;;;;10.60;8.10;;;15.60;99.90;;;15.55;88.61;98140.69;5035122;28;20664;-81
2021/09/20 01:45:12;;;;;;;10.00;7.70;;;15.60;99.90;;;15.57;88.49;98143.19;5052617;28;20722;-81
2021/09/20 01:47:42;;;;;;;9.27;7.40;;;15.60;99.90;;;15.57;90.31;98141.41;5036496;28;20676;-81
2021/09/20 01:50:13;;;;;;;7.77;6.60;;;15.60;99.90;;;15.59;91.25;98150.00;5052964;28;21277;-81
2021/09/20 01:52:43;;;;;;;8.93;7.40;;;15.60;99.90;;;15.59;91.57;98149.16;5021393;28;20628;-82
2021/09/20 01:55:13;;;;;;;7.70;6.90;;;15.60;99.90;;;15.58;90.78;98148.31;5042212;28;20634;-81
2021/09/20 01:57:42;;;;;;;9.87;7.17;;;15.60;99.90;;;15.59;89.36;98147.38;5033118;28;20629;-81
2021/09/20 02:00:15;;;;;;;8.70;7.50;;;15.60;99.90;;;15.59;91.10;98147.38;5035958;28;20642;-81
2021/09/20 02:02:44;;;;;;;8.90;7.40;;;15.60;99.90;;;15.59;89.16;98136.00;5039779;28;20628;-81
2021/09/20 02:05:14;;;;;;;8.37;7.40;;;15.60;99.90;;;15.59;90.24;98139.47;5038629;28;20634;-81
2021/09/20 02:07:43;;;;;;;8.03;6.47;;;15.60;99.90;;;15.60;89.43;98142.94;5033705;28;20755;-81
2021/09/20 02:10:16;;;;;;;8.20;7.03;;;15.60;99.90;;;15.58;90.01;98140.44;5034240;28;20763;-81
2021/09/20 02:12:45;;;;;;;9.30;7.90;;;15.60;99.90;;;15.57;90.36;98151.94;5040234;28;20604;-81
2021/09/20 02:15:14;;;;;;;12.10;7.97;;;15.60;99.90;;;15.54;89.28;98142.66;5026266;28;20724;-81
2021/09/20 02:17:43;;;;;;;9.33;7.57;;;15.50;99.90;;;15.51;90.37;98145.53;5041974;28;20751;-81
2021/09/20 02:20:14;;;;;;;9.10;7.30;;;15.50;99.90;;;15.49;88.62;98152.75;5038277;28;21091;-81
2021/09/20 02:22:42;;;;;;;8.60;7.50;;;15.50;99.90;;;15.44;90.63;98157.53;5038953;28;20661;-81
2021/09/20 02:25:13;;;;;;;10.63;8.60;;;15.50;99.90;;;15.40;88.48;98153.53;5039432;28;20633;-81
2021/09/20 02:27:42;;;;;;;9.60;7.90;;;15.40;99.90;;;15.38;90.02;98145.78;5036034;28;20705;-81
2021/09/20 02:30:13;;;;;;;9.23;7.00;;;15.40;99.90;;;15.38;91.23;98150.19;5037814;28;20677;-82
2021/09/20 02:32:42;;;;;;;8.83;7.00;;;15.50;99.90;;;15.37;91.33;98145.91;5040912;28;21176;-81
2021/09/20 02:35:11;;;;;;;9.77;7.97;;;15.50;99.90;;;15.37;92.01;98146.72;5037485;28;20633;-81
2021/09/20 02:37:41;;;;;;;10.37;8.20;;;15.50;99.90;;;15.39;90.94;98154.47;5025127;28;20672;-81
2021/09/20 02:40:13;;;;;;;8.10;7.30;;;15.40;99.90;;;15.37;89.80;98149.38;5069995;28;20670;-81
2021/09/20 02:42:42;;;;;;;10.13;7.80;;;15.40;99.90;;;15.37;91.70;98153.78;5034956;28;21032;-81
2021/09/20 02:45:12;;;;;;;9.83;7.27;;;15.40;99.90;;;15.35;89.77;98156.56;5020884;28;20734;-81
2021/09/20 02:47:41;;;;;;;9.40;7.60;;;15.40;99.90;;;15.33;91.05;98155.00;5040868;28;20629;-81
2021/09/20 02:50:12;;;;;;;9.07;7.80;;;15.40;99.90;;;15.31;91.51;98152.53;5043605;28;20724;-81
2021/09/20 02:52:41;;;;;;;8.90;7.37;;;15.30;99.90;;;15.32;91.22;98158.59;5022334;28;20641;-81
2021/09/20 02:55:11;;;;;;;8.83;7.80;;;15.30;99.90;;;15.30;91.07;98156.09;5034839;28;20677;-81
2021/09/20 02:57:42;;;;;;;9.47;7.77;;;15.30;99.90;;;15.27;91.41;98159.00;5036982;28;20742;-81
2021/09/20 03:00:13;;;;;;;9.57;8.00;;;15.30;99.90;;;15.23;91.37;98159.38;5039975;28;20687;-81
2021/09/20 03:02:43;;;;;;;8.27;7.03;;;15.30;99.90;;;15.21;90.63;98156.88;5039045;28;21361;-81
2021/09/20 03:05:12;;;;;;;8.80;7.37;;;15.20;99.90;;;15.22;91.11;98160.38;5037319;28;20651;-81
2021/09/20 03:07:40;;;;;;;10.90;8.17;;;15.30;99.90;;;15.22;92.81;98158.56;5044199;28;20667;-81
2021/09/20 03:10:10;;;;;;;8.23;6.90;;;15.30;99.90;;;15.22;92.93;98150.69;5039012;28;20626;-81
2021/09/20 03:12:39;;;;;;;10.73;8.40;;;15.30;99.90;;;15.22;91.55;98155.13;5033618;28;20623;-81
2021/09/20 03:15:10;;;;;;;9.60;8.10;;;15.30;99.90;;;15.19;93.01;98158.81;5041370;28;20668;-81
2021/09/20 03:17:38;;;;;;;10.97;8.73;;;15.20;99.90;;;15.18;92.21;98164.22;5034774;28;20637;-81
2021/09/20 03:20:09;;;;;;;10.13;8.30;;;15.20;99.90;;;15.15;91.38;98153.94;5038777;28;20636;-81
2021/09/20 03:22:38;;;;;;;11.23;8.13;;;15.20;99.90;;;15.13;91.85;98161.94;5036455;28;20707;-81
2021/09/20 03:25:09;;;;;;;9.10;7.47;;;15.10;99.90;;;15.11;92.45;98156.00;5034575;28;20740;-81
2021/09/20 03:27:38;;;;;;;8.90;7.67;;;15.10;99.90;;;15.10;92.86;98159.56;5033607;28;20726;-81
2021/09/20 03:30:12;;;;;;;12.50;7.90;;;15.20;99.90;;;15.09;92.20;98154.44;5037518;28;20664;-81
2021/09/20 03:32:41;;;;;;;12.17;8.33;;;15.10;99.90;;;15.08;91.58;98153.63;5047211;28;20672;-81
2021/09/20 03:35:12;;;;;;;8.73;7.40;;;15.10;99.90;;;15.09;91.54;98160.56;5036695;28;20740;-81
2021/09/20 03:37:40;;;;;;;15.47;8.67;;;15.10;99.90;;;15.07;91.95;98158.19;5037961;28;20635;-81
2021/09/20 03:40:12;;;;;;;10.27;7.63;;;15.10;99.90;;;15.08;91.12;98165.94;5036261;28;20682;-81
2021/09/20 03:42:42;;;;;;;10.23;7.77;;;15.10;99.90;;;15.06;91.66;98157.34;5035393;28;21033;-81
2021/09/20 03:45:13;;;;;;;9.30;7.50;;;15.10;99.90;;;15.06;91.80;98151.25;5043042;28;20691;-81
2021/09/20 03:47:42;;;;;;;9.23;7.80;;;15.10;99.90;;;15.04;90.97;98155.81;5041951;28;20733;-81
2021/09/20 03:50:12;;;;;;;8.70;7.67;;;15.10;99.90;;;15.04;90.75;98153.19;5050288;28;20623;-81
2021/09/20 03:52:41;;;;;;;11.00;8.10;;;15.10;99.90;;;15.05;91.95;98160.94;5045994;28;20644;-81
2021/09/20 03:55:13;;;;;;;9.40;7.77;;;15.10;99.90;;;15.05;93.10;98155.69;5043453;28;20681;-81
2021/09/20 03:57:42;;;;;;;11.43;7.60;;;15.10;99.90;;;15.07;92.40;98160.81;5040408;28;20632;-81
2021/09/20 04:00:14;;;;;;;9.40;7.80;;;15.10;99.90;;;15.07;91.44;98161.63;5043910;28;20647;-81
2021/09/20 04:02:43;;;;;;;10.13;8.20;;;15.10;99.90;;;15.07;92.07;98156.38;5059671;28;20645;-81
2021/09/20 04:05:12;;;;;;;10.70;8.20;;;15.10;99.90;;;15.08;92.72;98168.56;5041132;28;21198;-81
2021/09/20 04:07:42;;;;;;;9.97;7.50;;;15.10;99.90;;;15.11;92.83;98168.31;5041372;28;20676;-84
2021/09/20 04:10:12;;;;;;;10.70;7.80;;;15.10;99.90;;;15.16;92.20;98168.75;5039084;28;20633;-82
2021/09/20 04:12:41;;;;;;;9.43;7.33;;;15.20;99.90;;;15.17;93.45;98165.19;5044125;28;20755;-82
2021/09/20 04:15:12;;;;;;;9.27;7.60;;;15.20;99.90;;;15.20;93.01;98165.75;5043840;28;20733;-82
2021/09/20 04:17:41;;;;;;;9.70;8.27;;;15.30;99.90;;;15.15;92.63;98165.28;5039487;28;21229;-82
2021/09/20 04:20:11;;;;;;;8.43;7.53;;;15.20;99.90;;;15.11;91.60;98157.81;5056071;28;20977;-82
2021/09/20 04:22:40;;;;;;;11.13;7.63;;;15.20;99.90;;;15.12;93.05;98162.06;5025760;28;20632;-82
2021/09/20 04:25:11;;;;;;;8.50;7.60;;;15.10;99.90;;;15.12;92.48;98165.56;5045044;28;20726;-82
2021/09/20 04:27:39;;;;;;;10.97;8.10;;;15.10;99.90;;;15.09;92.27;98167.59;5038190;28;20662;-82
2021/09/20 04:30:12;;;;;;;10.23;7.83;;;15.10;99.90;;;15.07;91.84;98169.53;5063397;28;20726;-82
2021/09/20 04:32:40;;;;;;;9.33;7.70;;;15.10;99.90;;;15.08;93.71;98173.81;5044771;28;20663;-82
2021/09/20 04:35:10;;;;;;;8.90;8.00;;;15.10;99.90;;;15.09;92.46;98176.31;5056054;28;20625;-82
2021/09/20 04:37:39;;;;;;;8.17;7.33;;;15.10;99.90;;;15.11;94.01;98174.38;5044264;28;20659;-82
2021/09/20 04:40:11;;;;;;;11.30;7.93;;;15.10;99.90;;;15.12;92.41;98172.59;5049599;28;20662;-82
2021/09/20 04:42:40;;;;;;;9.50;8.13;;;15.10;99.90;;;15.12;93.61;98181.31;5046798;28;20668;-82
2021/09/20 04:45:10;;;;;;;10.17;9.00;;;15.10;99.90;;;15.13;93.95;98192.66;5040699;28;20648;-82
2021/09/20 04:47:40;;;;;;;10.60;8.80;;;15.20;99.90;;;15.13;93.58;98192.66;5044618;28;20688;-82
2021/09/20 04:50:09;;;;;;;9.90;8.23;;;15.20;99.90;;;15.14;94.63;98194.31;5057282;28;20631;-82
2021/09/20 04:52:38;;;;;;;9.73;8.07;;;15.20;99.90;;;15.13;93.88;98196.09;5040405;28;20662;-82
2021/09/20 04:55:09;;;;;;;9.17;8.20;;;15.20;99.90;;;15.14;94.33;98191.69;5056149;28;20620;-82
2021/09/20 04:57:37;;;;;;;12.10;8.40;;;15.20;99.90;;;15.12;93.07;98207.59;5042156;28;21280;-82
2021/09/20 05:00:10;;;;;;;9.47;8.40;;;15.20;99.90;;;15.13;93.18;98205.78;5045465;28;21262;-82
2021/09/20 05:02:40;;;;;;;12.10;8.90;;;15.20;99.90;;;15.13;93.82;98203.16;5049361;28;20632;-82
2021/09/20 05:05:12;;;;;;;11.90;9.20;;;15.20;99.90;;;15.13;93.54;98203.97;5045149;28;20638;-82
2021/09/20 05:07:40;;;;;;;9.57;8.40;;;15.20;99.90;;;15.12;94.37;98210.22;5057007;28;20667;-81
2021/09/20 05:10:10;;;;;;;11.30;8.03;;;15.20;99.90;;;15.13;93.59;98216.28;5041543;28;20628;-81
2021/09/20 05:12:39;;;;;;;10.47;8.00;;;15.20;99.90;;;15.13;94.14;98213.66;5039857;28;20683;-81
2021/09/20 05:15:10;;;;;;;10.50;8.97;;;15.20;99.90;;;15.14;93.02;98228.47;5044637;28;21043;-81
2021/09/20 05:17:40;;;;;;;10.40;8.60;;;15.20;99.90;;;15.13;93.55;98218.91;5038584;28;20644;-81
2021/09/20 05:20:12;;;;;;;9.43;8.30;;;15.20;99.90;;;15.15;92.89;98222.25;5050935;28;20623;-81
2021/09/20 05:22:41;;;;;;;11.67;8.60;;;15.20;99.90;;;15.15;94.13;98223.09;5045228;28;20644;-82
2021/09/20 05:25:11;;;;;;;9.67;8.33;;;15.20;99.90;;;15.18;93.96;98227.28;5045245;28;21200;-82
2021/09/20 05:27:40;;;;;;;9.47;8.47;;;15.20;99.90;;;15.20;92.51;98230.63;5045643;28;21189;-82
2021/09/20 05:30:11;;;;;;;10.33;7.90;;;15.20;99.90;;;15.19;92.43;98224.50;5047134;28;21140;-82
2021/09/20 05:32:41;;;;;;;10.03;7.90;;;15.20;99.90;;;15.20;91.93;98222.75;5077741;28;20750;-83
2021/09/20 05:35:13;;;;;;;9.67;8.63;;;15.30;99.90;;;15.20;92.86;98220.94;5036054;28;20674;-82
2021/09/20 05:37:45;;;;;;;11.60;8.93;;;15.30;99.90;;;15.21;92.63;98229.66;5053848;28;20726;-83
2021/09/20 05:40:16;;;;;;;10.20;8.30;;;15.20;99.90;;;15.22;93.01;98229.50;5039601;28;20690;-83
2021/09/20 05:42:46;;;;;;;10.20;7.50;;;15.30;99.90;;;15.23;93.01;98232.97;5042352;28;20705;-83
2021/09/20 05:45:14;;;;;;;14.70;9.20;;;15.30;99.90;;;15.24;93.03;98224.13;5027471;28;20644;-83
2021/09/20 05:47:44;;;;;;;9.93;8.00;;;15.30;99.90;;;15.24;94.02;98234.63;5040196;28;20687;-83
2021/09/20 05:50:13;;;;;;;10.10;8.67;;;15.30;99.90;;;15.23;93.12;98231.19;5040989;28;21429;-83
2021/09/20 05:52:42;;;;;;;9.57;8.57;;;15.30;99.90;;;15.24;92.14;98234.63;5038019;28;21017;-83
2021/09/20 05:55:12;;;;;;;11.37;8.47;;;15.30;99.90;;;15.25;93.46;98233.69;5037309;28;20618;-82
2021/09/20 05:57:41;;;;;;;10.20;8.10;;;15.30;99.90;;;15.26;93.23;98230.06;5036979;28;20635;-82
2021/09/20 06:00:11;;;;;;;11.30;9.13;;;15.30;99.90;;;15.27;92.99;98229.13;5037078;28;20673;-82
2021/09/20 06:02:41;;;;;;;13.43;9.07;;;15.30;99.90;;;15.28;93.93;98228.16;5044595;28;20742;-82
2021/09/20 06:05:14;;;;;;;12.47;9.67;;;15.30;99.90;;;15.28;92.88;98230.81;5040217;28;20732;-83
2021/09/20 06:07:43;;;;;;;11.87;8.20;;;15.30;99.90;;;15.29;94.46;98229.81;5040458;28;20703;-82
2021/09/20 06:10:13;;;;;;;11.00;8.93;;;15.30;99.90;;;15.30;94.06;98242.00;5030789;28;20653;-83
2021/09/20 06:12:46;;;;;;;9.77;8.73;;;15.40;99.90;;;15.31;93.77;98238.44;5031439;28;21303;-83
2021/09/20 06:15:16;;;;;;;12.00;10.13;;;15.40;99.90;;;15.30;92.87;98242.81;5045029;28;20656;-82
2021/09/20 06:17:44;;;;;;;10.17;8.77;;;15.40;99.90;;;15.31;94.30;98249.75;5039379;28;20787;-82
2021/09/20 06:20:16;;;;;;;12.27;9.53;;;15.40;99.90;;;15.35;94.66;98247.69;5056272;28;20990;-82
2021/09/20 06:22:44;;;;;;;10.47;9.07;;;15.40;99.90;;;15.36;94.88;98247.56;5048170;28;20727;-83
2021/09/20 06:25:13;;;;;;;10.97;8.77;;;15.40;99.90;;;15.38;93.93;98250.06;5046064;28;20704;-83
2021/09/20 06:27:42;;;;;;;11.20;8.57;;;15.40;99.90;;;15.40;93.08;98248.97;5046324;28;20620;-83
2021/09/20 06:30:13;;;;;;;12.57;9.63;;;15.40;99.90;;;15.44;93.15;98249.53;5042447;28;21040;-82
2021/09/20 06:32:42;;;;;;;10.80;9.17;;;15.50;99.90;;;15.46;92.76;98247.63;5040952;28;20690;-83
2021/09/20 06:35:13;;;;;;;12.07;9.57;;;15.50;99.90;;;15.49;92.37;98252.63;5046146;28;20681;-83
2021/09/20 06:37:43;;;;;;;10.47;8.80;;;15.50;99.90;;;15.53;92.72;98251.41;5043549;28;21189;-83
2021/09/20 06:40:14;;;;;;;11.97;9.80;;;15.50;99.90;;;15.54;93.94;98260.97;5033193;28;20663;-82
2021/09/20 06:42:43;;;;;;;11.47;8.60;;;15.60;99.90;;;15.55;93.23;98254.75;5041738;28;20666;-82
2021/09/20 06:45:12;;;;;;;12.27;8.60;;;15.60;99.90;;;15.56;92.32;98265.97;5047807;28;21057;-83
2021/09/20 06:47:41;;;;;;;9.93;8.77;;;15.60;99.90;;;15.57;92.75;98265.00;5042313;28;20639;-82
2021/09/20 06:50:11;;;;;;;11.30;9.40;;;15.60;99.90;;;15.60;91.48;98262.06;5042644;28;20966;-82
2021/09/20 06:52:40;;;;;;;13.07;8.83;;;15.60;99.90;;;15.62;92.01;98269.84;5039628;28;20679;-82
2021/09/20 06:55:13;;;;;;;10.60;8.33;;;15.70;99.90;;;15.65;90.95;98270.44;5044526;28;20647;-82
2021/09/20 06:57:42;;;;;;;10.50;8.70;;;15.70;99.90;;;15.64;91.55;98267.94;5043563;28;20636;-82
2021/09/20 07:00:14;;;;;;;14.73;8.73;;;15.60;99.90;;;15.63;92.08;98263.63;5040353;28;20629;-82
2021/09/20 07:02:43;;;;;;;12.40;8.53;;;15.60;99.90;;;15.64;92.67;98267.94;5044383;28;20640;-82
2021/09/20 07:05:14;;;;;;;12.60;8.30;;;15.70;99.90;;;15.66;91.28;98271.25;5048050;28;20632;-82
2021/09/20 07:07:42;;;;;;;9.70;8.20;;;15.70;99.90;;;15.67;92.69;98272.94;5041362;28;20772;-82
2021/09/20 07:10:14;;;;;;;11.83;9.30;;;15.70;99.90;;;15.68;92.32;98270.16;5043071;28;20726;-82
2021/09/20 07:12:45;;;;;;;10.87;8.73;;;15.70;99.90;;;15.68;92.60;98266.69;5054154;28;20683;-82
2021/09/20 07:15:16;;;;;;;13.20;9.10;;;15.70;99.90;;;15.65;91.21;98266.94;5025500;28;21639;-82
2021/09/20 07:17:45;;;;;;;11.83;9.17;;;15.70;99.90;;;15.64;92.24;98266.13;5038534;28;20998;-82
2021/09/20 07:20:14;;;;;;;11.00;8.60;;;15.70;99.90;;;15.66;91.72;98272.06;5042455;28;20640;-82
2021/09/20 07:22:43;;;;;;;9.93;8.90;;;15.70;99.90;;;15.69;92.56;98271.00;5036828;28;20698;-82
2021/09/20 07:25:14;;;;;;;13.07;9.23;;;15.70;99.90;;;15.71;91.56;98269.91;5038041;28;20640;-82
2021/09/20 07:27:43;;;;;;;10.93;8.90;;;15.70;99.90;;;15.76;92.03;98269.50;5044250;28;20670;-82
2021/09/20 07:30:17;;;;;;;10.73;8.50;;;15.80;99.90;;;15.81;92.47;98276.03;5036361;28;21055;-82
2021/09/20 07:32:47;;;;;;;11.80;8.50;;;15.80;99.90;;;15.86;93.52;98278.25;5041973;28;20635;-82
2021/09/20 07:35:17;;;;;;;10.20;8.10;;;15.90;99.90;;;15.88;91.12;98282.44;5042235;28;20642;-82
2021/09/20 07:37:46;;;;;;;9.73;7.90;;;15.90;99.90;;;15.95;90.90;98285.34;5036882;28;20672;-82
2021/09/20 07:40:17;;;;;;;9.50;7.87;;;15.90;99.90;;;15.97;93.05;98281.63;5040315;28;20682;-82
2021/09/20 07:42:46;;;;;;;9.13;7.73;;;16.00;99.90;;;16.02;90.17;98282.06;5042782;28;20625;-83
2021/09/20 07:45:15;;;;;;;12.03;8.20;;;16.00;99.90;;;16.03;91.04;98281.09;5047158;28;20663;-82
2021/09/20 07:47:44;;;;;;;9.03;8.00;;;16.00;99.90;;;16.08;91.60;98292.88;5043667;28;20743;-82
2021/09/20 07:50:15;;;;;;;10.33;8.50;;;16.10;99.90;;;16.11;91.26;98292.59;5041197;28;20743;-82
2021/09/20 07:52:44;;;;;;;9.70;7.90;;;16.10;99.90;;;16.11;90.89;98289.16;5042775;28;20655;-82
2021/09/20 07:55:14;;;;;;;10.07;7.67;;;16.10;99.90;;;16.14;90.20;98287.06;5044019;28;20660;-82
2021/09/20 07:57:45;;;;;;;10.10;8.27;;;16.10;99.90;;;16.17;89.51;98293.88;5042668;28;21175;-82
2021/09/20 08:00:16;;;;;;;11.53;8.40;;;16.10;99.90;;;16.18;88.74;98291.13;5042773;28;20673;-83
2021/09/20 08:02:45;;;;;;;10.17;8.30;;;16.20;99.90;;;16.21;88.50;98287.41;5042187;28;20719;-82
2021/09/20 08:05:15;;;;;;;10.57;8.67;;;16.20;99.90;;;16.25;90.00;98287.03;5041615;28;20695;-83
2021/09/20 08:07:43;;;;;;;10.33;8.00;;;16.20;99.90;;;16.25;89.38;98286.19;5030495;28;20750;-83
2021/09/20 08:10:12;;;;;;;10.00;7.80;;;16.20;99.90;;;16.29;88.40;98287.59;5042252;28;21238;-83
2021/09/20 08:12:42;;;;;;;11.17;8.50;;;16.30;99.90;;;16.33;89.42;98289.00;5048274;28;20642;-82
2021/09/20 08:15:13;;;;;;;10.40;7.97;;;16.30;99.90;;;16.36;88.56;98294.00;5042760;28;20664;-84
2021/09/20 08:17:42;;;;;;;10.13;7.80;;;16.30;99.90;;;16.39;89.83;98293.69;5022934;28;21227;-84
2021/09/20 08:20:13;;;;;;;12.83;8.03;;;16.40;99.90;;;16.46;88.40;98289.56;5074739;28;20749;-84
2021/09/20 08:22:49;;;;;;;9.83;8.40;;;16.40;99.90;;;16.47;87.84;98297.31;5045741;28;20727;-84
2021/09/20 08:25:19;;;;;;;10.03;7.87;;;16.40;99.90;;;16.50;88.19;98285.69;5039978;28;20685;-84
2021/09/20 08:27:51;;;;;;;11.73;7.83;;;16.50;99.90;;;16.55;90.57;98290.41;5023256;28;20670;-84
2021/09/20 08:30:22;;;;;;;8.80;7.77;;;16.50;99.90;;;16.60;88.72;98295.28;5046333;28;20714;-83
2021/09/20 08:32:51;;;;;;;9.53;8.37;;;16.50;99.90;;;16.64;87.76;98300.13;5044450;28;21450;-85
2021/09/20 08:35:21;;;;;;;10.03;8.13;;;16.60;99.90;;;16.69;87.69;98303.19;5032532;28;20668;-81
2021/09/20 08:37:51;;;;;;;10.53;8.47;;;16.70;99.90;;;16.75;89.61;98302.63;5040192;28;21105;-81
2021/09/20 08:40:20;;;;;;;17.20;12.80;;;16.70;99.90;;;16.78;90.47;98306.78;5038053;28;20662;-81
2021/09/20 08:42:52;;;;;;;9.20;8.27;;;16.70;99.90;;;16.81;89.30;98311.78;5042913;28;20628;-81
2021/09/20 08:45:22;;;;;;;9.30;7.97;;;16.80;99.90;;;16.81;89.10;98312.63;5053337;28;20726;-81
2021/09/20 08:47:54;;;;;;;11.13;9.07;;;16.80;99.90;;;16.85;90.46;98321.06;5045231;28;20671;-81
2021/09/20 08:50:28;;;;;;;10.03;8.37;;;16.80;99.90;;;16.86;89.15;98318.31;5042475;28;20704;-81
2021/09/20 08:52:57;;;;;;;10.87;8.53;;;16.90;99.90;;;16.91;90.44;98315.25;5063353;28;20642;-81
2021/09/20 08:55:26;;;;;;;9.87;8.30;;;16.90;99.90;;;16.97;88.69;98326.06;5042423;28;20692;-81
2021/09/20 08:57:56;;;;;;;11.00;8.20;;;16.90;99.90;;;17.00;89.51;98328.44;5039395;28;20692;-81
2021/09/20 09:00:26;;;;;;;8.87;7.70;;;17.00;99.90;;;17.03;89.43;98333.44;5041576;28;20636;-81
2021/09/20 09:02:55;;;;;;;9.13;8.13;;;17.00;99.90;;;17.06;88.80;98334.00;5039972;28;20633;-83
2021/09/20 09:05:27;;;;;;;10.57;8.70;;;17.00;99.90;;;17.10;89.08;98337.19;5041505;28;20638;-82
2021/09/20 09:07:58;;;;;;;10.43;8.53;;;17.10;99.90;;;17.12;88.14;98337.88;5044731;28;20676;-83
2021/09/20 09:10:34;;;;;;;10.57;8.63;;;17.10;99.90;;;17.11;87.40;98336.22;5041331;28;20632;-83
2021/09/20 09:13:06;;;;;;;10.47;8.70;;;17.10;99.90;;;17.06;87.63;98341.91;5043895;28;21011;-82
2021/09/20 09:15:36;;;;;;;11.33;8.00;;;17.00;99.90;;;17.08;88.28;98339.13;5080919;28;20672;-82
2021/09/20 09:18:07;;;;;;;11.40;8.27;;;17.10;99.90;;;17.10;87.72;98340.63;5043473;28;20628;-81
2021/09/20 09:20:40;;;;;;;9.60;8.60;;;17.10;99.90;;;17.13;87.40;98340.38;5061034;28;20628;-81
2021/09/20 09:23:11;;;;;;;11.83;8.63;;;17.10;99.90;;;17.13;88.81;98344.81;5055606;28;20719;-81
2021/09/20 09:25:42;;;;;;;8.70;7.73;;;17.10;99.90;;;17.13;87.04;98345.63;5040076;28;20624;-81
2021/09/20 09:28:19;;;;;;;9.10;8.10;;;17.10;99.90;;;17.12;87.63;98348.41;5040315;28;20728;-82
2021/09/20 09:30:54;;;;;;;9.80;8.80;;;17.10;99.90;;;17.15;87.43;98348.13;5035832;28;20644;-82
2021/09/20 09:33:26;;;;;;;9.40;8.00;;;17.10;99.90;;;17.19;86.71;98349.53;5039735;28;20688;-82
2021/09/20 09:35:56;;;;;;;8.97;7.60;;;17.20;99.90;;;17.20;86.38;98356.44;5047969;28;20746;-83
2021/09/20 09:38:25;;;;;;;9.33;8.27;;;17.20;99.90;;;17.26;86.12;98350.66;5058007;28;20682;-81
2021/09/20 09:40:57;;;;;;;10.47;9.00;;;17.20;99.90;;;17.30;85.39;98354.69;5044989;28;21193;-81
2021/09/20 09:43:30;;;;;;;11.20;7.87;;;17.20;99.90;;;17.34;85.17;98351.63;5043676;28;22544;-81
2021/09/20 09:46:01;;;;;;;10.50;8.73;;;17.20;99.90;;;17.36;84.90;98351.50;5042155;28;20716;-81
2021/09/20 09:48:32;;;;;;;9.90;8.30;;;17.30;99.90;;;17.41;86.39;98351.91;5044074;28;21218;-81
2021/09/20 09:51:03;;;;;;;10.20;8.17;;;17.30;99.90;;;17.40;84.88;98348.44;5077630;28;21271;-81
2021/09/20 09:53:34;;;;;;;9.30;8.27;;;17.30;99.80;;;17.40;84.97;98345.81;5042065;28;20708;-81
2021/09/20 09:56:27;;;;;;;11.13;9.13;;;17.30;99.60;;;17.37;85.58;98347.91;5040149;28;20689;-81
2021/09/20 09:59:01;;;;;;;10.20;8.30;;;17.30;99.70;;;17.39;84.74;98343.31;5044090;28;21350;-81
2021/09/20 10:01:33;;;;;;;10.20;8.33;;;17.30;99.90;;;17.43;84.85;98349.97;5046042;28;20644;-83
2021/09/20 10:04:15;;;;;;;10.87;8.90;;;17.30;99.60;;;17.44;84.46;98347.19;5043858;28;20760;-83
2021/09/20 10:06:53;;;;;;;12.40;9.70;;;17.40;99.70;;;17.46;84.80;98347.06;5031248;28;20674;-82
2021/09/20 10:09:26;;;;;;;13.00;9.27;;;17.40;99.50;;;17.52;85.57;98340.22;5030835;28;20640;-82
2021/09/20 10:11:59;;;;;;;10.50;8.90;;;17.40;99.80;;;17.60;84.62;98350.91;5044944;28;20737;-82
2021/09/20 10:14:29;;;;;;;11.27;8.90;;;17.50;99.60;;;17.65;84.89;98348.69;5044205;28;21075;-82
2021/09/20 10:17:00;;;;;;;9.83;8.83;;;17.50;99.40;;;17.69;84.37;98350.06;5073330;28;20737;-82
2021/09/20 10:19:30;;;;;;;10.50;8.60;;;17.60;99.40;;;17.74;83.47;98347.84;5054480;28;20913;-82
2021/09/20 10:21:58;;;;;;;10.93;8.70;;;17.60;98.80;;;17.73;83.83;98351.44;5043852;28;20633;-82
2021/09/20 10:24:28;;;;;;;12.17;9.37;;;17.60;99.00;;;17.77;83.96;98352.84;5046733;28;20636;-82
2021/09/20 10:26:57;;;;;;;11.80;9.43;;;17.70;98.90;;;17.82;83.28;98349.78;5040169;28;20637;-82